sensor_id;sensor_type;location;lat;lon;timestamp;noise_LAeq;noise_LA_min;noise_LA_max;noise_LA01;noise_LA95
68599;Laerm;18038;50.166;18.908;2023-05-10T00:01:18;48.14;46.83;56.91;;
68599;Laerm;18038;50.166;18.908;2023-05-10T00:04:27;48.34;46.82;58.67;;
68599;Laerm;18038;50.166;18.908;2023-05-10T00:07:37;49.22;46.71;67.85;;
68599;Laerm;18038;50.166;18.908;2023-05-10T00:10:43;48.29;46.82;66.58;;
68599;Laerm;18038;50.166;18.908;2023-05-10T00:13:50;48.06;46.64;50.50;;
68599;Laerm;18038;50.166;18.908;2023-05-10T00:16:56;48.29;46.66;56.63;;
68599;Laerm;18038;50.166;18.908;2023-05-10T00:20:04;48.83;46.78;62.69;;
68599;Laerm;18038;50.166;18.908;2023-05-10T00:23:13;48.85;46.65;58.66;;
68599;Laerm;18038;50.166;18.908;2023-05-10T00:26:21;48.22;46.77;59.76;;
68599;Laerm;18038;50.166;18.908;2023-05-10T00:29:30;47.95;46.58;57.42;;
68599;Laerm;18038;50.166;18.908;2023-05-10T00:32:37;48.10;46.59;59.88;;
68599;Laerm;18038;50.166;18.908;2023-05-10T00:35:43;48.22;46.77;53.46;;
68599;Laerm;18038;50.166;18.908;2023-05-10T00:38:53;48.07;46.55;61.24;;
68599;Laerm;18038;50.166;18.908;2023-05-10T00:41:59;48.13;46.78;54.72;;
68599;Laerm;18038;50.166;18.908;2023-05-10T00:45:09;48.27;46.57;60.61;;
68599;Laerm;18038;50.166;18.908;2023-05-10T00:48:15;47.83;46.67;53.66;;
68599;Laerm;18038;50.166;18.908;2023-05-10T00:51:22;48.48;46.90;56.85;;
68599;Laerm;18038;50.166;18.908;2023-05-10T00:54:31;48.16;46.79;54.35;;
68599;Laerm;18038;50.166;18.908;2023-05-10T00:57:38;49.56;46.73;61.08;;
68599;Laerm;18038;50.166;18.908;2023-05-10T01:00:46;48.32;46.94;59.88;;
68599;Laerm;18038;50.166;18.908;2023-05-10T01:03:55;48.08;46.74;49.99;;
68599;Laerm;18038;50.166;18.908;2023-05-10T01:07:01;48.67;46.65;58.79;;
68599;Laerm;18038;50.166;18.908;2023-05-10T01:10:11;48.01;46.79;58.85;;
68599;Laerm;18038;50.166;18.908;2023-05-10T01:13:33;48.09;46.97;53.77;;
68599;Laerm;18038;50.166;18.908;2023-05-10T01:16:44;48.21;46.66;51.27;;
68599;Laerm;18038;50.166;18.908;2023-05-10T01:19:52;48.33;46.79;52.64;;
68599;Laerm;18038;50.166;18.908;2023-05-10T01:23:34;48.93;46.82;59.72;;
68599;Laerm;18038;50.166;18.908;2023-05-10T01:27:13;48.83;46.58;59.16;;
68599;Laerm;18038;50.166;18.908;2023-05-10T01:31:03;49.29;46.81;71.87;;
68599;Laerm;18038;50.166;18.908;2023-05-10T01:34:32;48.98;46.80;59.20;;
68599;Laerm;18038;50.166;18.908;2023-05-10T01:37:47;49.05;46.94;61.21;;
68599;Laerm;18038;50.166;18.908;2023-05-10T01:41:11;48.51;46.95;60.81;;
68599;Laerm;18038;50.166;18.908;2023-05-10T01:44:31;48.51;46.93;60.05;;
68599;Laerm;18038;50.166;18.908;2023-05-10T01:47:46;50.16;46.96;64.48;;
68599;Laerm;18038;50.166;18.908;2023-05-10T01:50:58;49.12;46.71;60.62;;
68599;Laerm;18038;50.166;18.908;2023-05-10T01:54:09;48.68;46.90;56.07;;
68599;Laerm;18038;50.166;18.908;2023-05-10T01:57:21;50.04;46.97;61.44;;
68599;Laerm;18038;50.166;18.908;2023-05-10T02:00:36;49.15;46.96;59.73;;
68599;Laerm;18038;50.166;18.908;2023-05-10T02:03:47;48.25;46.96;51.10;;
68599;Laerm;18038;50.166;18.908;2023-05-10T02:06:59;48.93;46.98;60.93;;
68599;Laerm;18038;50.166;18.908;2023-05-10T02:10:09;49.43;47.09;58.49;;
68599;Laerm;18038;50.166;18.908;2023-05-10T02:13:19;50.05;47.12;72.09;;
68599;Laerm;18038;50.166;18.908;2023-05-10T02:16:29;49.74;47.32;58.22;;
68599;Laerm;18038;50.166;18.908;2023-05-10T02:19:41;50.12;47.19;63.50;;
68599;Laerm;18038;50.166;18.908;2023-05-10T02:22:56;49.84;47.07;59.34;;
68599;Laerm;18038;50.166;18.908;2023-05-10T02:26:07;49.61;47.17;65.24;;
68599;Laerm;18038;50.166;18.908;2023-05-10T02:29:18;49.68;47.21;58.12;;
68599;Laerm;18038;50.166;18.908;2023-05-10T02:32:29;50.05;47.35;59.31;;
68599;Laerm;18038;50.166;18.908;2023-05-10T02:35:46;49.20;46.99;55.84;;
68599;Laerm;18038;50.166;18.908;2023-05-10T02:39:01;50.06;47.30;57.65;;
68599;Laerm;18038;50.166;18.908;2023-05-10T02:42:18;49.68;46.86;57.43;;
68599;Laerm;18038;50.166;18.908;2023-05-10T02:45:31;49.95;47.32;60.42;;
68599;Laerm;18038;50.166;18.908;2023-05-10T02:48:38;51.17;47.66;62.41;;
68599;Laerm;18038;50.166;18.908;2023-05-10T02:51:54;50.15;47.22;59.00;;
68599;Laerm;18038;50.166;18.908;2023-05-10T02:55:15;50.88;47.60;59.78;;
68599;Laerm;18038;50.166;18.908;2023-05-10T02:58:24;50.56;47.24;59.24;;
68599;Laerm;18038;50.166;18.908;2023-05-10T03:01:30;51.87;47.64;63.64;;
68599;Laerm;18038;50.166;18.908;2023-05-10T03:04:43;52.11;47.53;60.43;;
68599;Laerm;18038;50.166;18.908;2023-05-10T03:07:50;51.42;47.76;60.74;;
68599;Laerm;18038;50.166;18.908;2023-05-10T03:11:27;51.30;47.70;60.21;;
68599;Laerm;18038;50.166;18.908;2023-05-10T03:14:53;51.87;47.69;58.94;;
68599;Laerm;18038;50.166;18.908;2023-05-10T03:18:42;51.99;47.90;61.35;;
68599;Laerm;18038;50.166;18.908;2023-05-10T03:21:53;51.41;47.81;58.02;;
68599;Laerm;18038;50.166;18.908;2023-05-10T03:25:16;52.97;48.11;66.07;;
68599;Laerm;18038;50.166;18.908;2023-05-10T03:28:31;51.61;47.68;59.65;;
68599;Laerm;18038;50.166;18.908;2023-05-10T03:31:42;51.63;48.05;59.59;;
68599;Laerm;18038;50.166;18.908;2023-05-10T03:34:50;51.69;47.76;61.45;;
68599;Laerm;18038;50.166;18.908;2023-05-10T03:38:08;53.10;48.12;65.53;;
68599;Laerm;18038;50.166;18.908;2023-05-10T03:41:21;53.23;49.02;66.26;;
68599;Laerm;18038;50.166;18.908;2023-05-10T03:44:32;52.14;48.23;58.25;;
68599;Laerm;18038;50.166;18.908;2023-05-10T03:47:38;52.75;47.92;61.75;;
68599;Laerm;18038;50.166;18.908;2023-05-10T03:50:46;52.44;47.95;60.06;;
68599;Laerm;18038;50.166;18.908;2023-05-10T03:53:52;52.94;48.27;60.92;;
68599;Laerm;18038;50.166;18.908;2023-05-10T03:56:59;52.31;47.98;58.84;;
68599;Laerm;18038;50.166;18.908;2023-05-10T04:00:16;51.25;47.53;59.59;;
68599;Laerm;18038;50.166;18.908;2023-05-10T04:03:32;51.49;47.55;61.37;;
68599;Laerm;18038;50.166;18.908;2023-05-10T04:06:40;51.94;47.62;61.90;;
68599;Laerm;18038;50.166;18.908;2023-05-10T04:09:47;53.16;48.02;64.03;;
68599;Laerm;18038;50.166;18.908;2023-05-10T04:12:53;52.32;47.74;60.68;;
68599;Laerm;18038;50.166;18.908;2023-05-10T04:16:04;52.39;48.00;61.81;;
68599;Laerm;18038;50.166;18.908;2023-05-10T04:19:10;52.81;48.09;63.04;;
68599;Laerm;18038;50.166;18.908;2023-05-10T04:22:16;54.00;48.10;62.00;;
68599;Laerm;18038;50.166;18.908;2023-05-10T04:25:22;53.17;47.83;68.57;;
68599;Laerm;18038;50.166;18.908;2023-05-10T04:28:29;53.42;48.29;69.19;;
68599;Laerm;18038;50.166;18.908;2023-05-10T04:31:38;53.11;47.71;65.44;;
68599;Laerm;18038;50.166;18.908;2023-05-10T04:34:47;54.15;48.91;62.67;;
68599;Laerm;18038;50.166;18.908;2023-05-10T04:37:53;54.26;48.23;65.69;;
68599;Laerm;18038;50.166;18.908;2023-05-10T04:41:08;53.81;48.25;62.80;;
68599;Laerm;18038;50.166;18.908;2023-05-10T04:44:21;54.78;48.55;65.54;;
68599;Laerm;18038;50.166;18.908;2023-05-10T04:47:30;54.76;48.86;70.94;;
68599;Laerm;18038;50.166;18.908;2023-05-10T04:50:37;53.66;48.59;60.48;;
68599;Laerm;18038;50.166;18.908;2023-05-10T04:53:47;54.42;48.37;67.62;;
68599;Laerm;18038;50.166;18.908;2023-05-10T04:57:07;54.40;47.83;73.20;;
68599;Laerm;18038;50.166;18.908;2023-05-10T05:00:16;53.79;48.48;63.88;;
68599;Laerm;18038;50.166;18.908;2023-05-10T05:03:26;54.24;48.84;62.35;;
68599;Laerm;18038;50.166;18.908;2023-05-10T05:06:33;53.81;47.76;61.08;;
68599;Laerm;18038;50.166;18.908;2023-05-10T05:09:40;53.42;47.90;64.30;;
68599;Laerm;18038;50.166;18.908;2023-05-10T05:12:55;54.29;47.68;64.84;;
68599;Laerm;18038;50.166;18.908;2023-05-10T05:16:01;53.13;47.73;65.27;;
68599;Laerm;18038;50.166;18.908;2023-05-10T05:19:11;53.82;48.00;64.64;;
68599;Laerm;18038;50.166;18.908;2023-05-10T05:22:18;53.63;47.91;66.69;;
68599;Laerm;18038;50.166;18.908;2023-05-10T05:25:31;53.90;47.93;65.52;;
68599;Laerm;18038;50.166;18.908;2023-05-10T05:28:37;54.87;47.90;62.88;;
68599;Laerm;18038;50.166;18.908;2023-05-10T05:31:44;53.71;47.74;64.75;;
68599;Laerm;18038;50.166;18.908;2023-05-10T05:34:53;56.59;47.73;81.72;;
68599;Laerm;18038;50.166;18.908;2023-05-10T05:38:00;53.56;48.02;61.02;;
68599;Laerm;18038;50.166;18.908;2023-05-10T05:41:06;55.56;49.36;63.32;;
68599;Laerm;18038;50.166;18.908;2023-05-10T05:44:13;55.77;49.43;62.11;;
68599;Laerm;18038;50.166;18.908;2023-05-10T05:47:19;54.03;48.25;63.20;;
68599;Laerm;18038;50.166;18.908;2023-05-10T05:50:28;53.27;47.54;68.36;;
68599;Laerm;18038;50.166;18.908;2023-05-10T05:53:34;54.10;47.20;77.45;;
68599;Laerm;18038;50.166;18.908;2023-05-10T05:56:41;54.71;47.57;63.75;;
68599;Laerm;18038;50.166;18.908;2023-05-10T05:59:47;54.18;47.98;65.54;;
68599;Laerm;18038;50.166;18.908;2023-05-10T06:02:54;53.58;47.65;64.29;;
68599;Laerm;18038;50.166;18.908;2023-05-10T06:06:05;54.87;48.13;72.04;;
68599;Laerm;18038;50.166;18.908;2023-05-10T06:09:13;53.92;47.37;70.33;;
68599;Laerm;18038;50.166;18.908;2023-05-10T06:12:23;54.38;47.91;68.28;;
68599;Laerm;18038;50.166;18.908;2023-05-10T06:15:30;54.25;47.91;62.87;;
68599;Laerm;18038;50.166;18.908;2023-05-10T06:18:37;52.88;47.66;60.74;;
68599;Laerm;18038;50.166;18.908;2023-05-10T06:21:47;53.20;47.59;66.10;;
68599;Laerm;18038;50.166;18.908;2023-05-10T06:24:55;53.43;47.46;64.95;;
68599;Laerm;18038;50.166;18.908;2023-05-10T06:28:02;54.14;47.44;71.96;;
68599;Laerm;18038;50.166;18.908;2023-05-10T06:31:08;56.66;48.00;74.84;;
68599;Laerm;18038;50.166;18.908;2023-05-10T06:34:16;52.82;47.21;61.39;;
68599;Laerm;18038;50.166;18.908;2023-05-10T06:37:24;53.61;47.50;69.39;;
68599;Laerm;18038;50.166;18.908;2023-05-10T06:40:31;54.25;47.32;69.58;;
68599;Laerm;18038;50.166;18.908;2023-05-10T06:43:41;53.92;47.69;66.07;;
68599;Laerm;18038;50.166;18.908;2023-05-10T06:46:48;52.92;47.23;70.79;;
68599;Laerm;18038;50.166;18.908;2023-05-10T06:49:55;56.14;47.39;79.28;;
68599;Laerm;18038;50.166;18.908;2023-05-10T06:53:05;52.42;47.20;69.04;;
68599;Laerm;18038;50.166;18.908;2023-05-10T06:56:11;53.22;46.97;63.14;;
68599;Laerm;18038;50.166;18.908;2023-05-10T06:59:17;53.32;47.34;62.88;;
68599;Laerm;18038;50.166;18.908;2023-05-10T07:02:24;56.40;47.46;81.64;;
68599;Laerm;18038;50.166;18.908;2023-05-10T07:05:31;53.54;47.54;68.51;;
68599;Laerm;18038;50.166;18.908;2023-05-10T07:08:40;52.85;47.62;63.64;;
68599;Laerm;18038;50.166;18.908;2023-05-10T07:11:47;53.17;47.12;63.71;;
68599;Laerm;18038;50.166;18.908;2023-05-10T07:14:53;52.96;46.93;68.53;;
68599;Laerm;18038;50.166;18.908;2023-05-10T07:18:00;52.78;47.06;65.14;;
68599;Laerm;18038;50.166;18.908;2023-05-10T07:21:07;53.07;48.01;67.46;;
68599;Laerm;18038;50.166;18.908;2023-05-10T07:24:17;52.75;46.85;63.88;;
68599;Laerm;18038;50.166;18.908;2023-05-10T07:27:23;52.78;47.47;64.24;;
68599;Laerm;18038;50.166;18.908;2023-05-10T07:30:29;53.25;47.22;62.28;;
68599;Laerm;18038;50.166;18.908;2023-05-10T07:33:35;53.32;47.73;68.50;;
68599;Laerm;18038;50.166;18.908;2023-05-10T07:36:42;52.29;47.31;64.00;;
68599;Laerm;18038;50.166;18.908;2023-05-10T07:39:54;52.53;46.92;63.15;;
68599;Laerm;18038;50.166;18.908;2023-05-10T07:43:01;52.72;47.59;61.36;;
68599;Laerm;18038;50.166;18.908;2023-05-10T07:46:07;53.51;47.35;76.23;;
68599;Laerm;18038;50.166;18.908;2023-05-10T07:49:14;53.77;47.97;67.50;;
68599;Laerm;18038;50.166;18.908;2023-05-10T07:52:20;51.65;46.96;62.23;;
68599;Laerm;18038;50.166;18.908;2023-05-10T07:55:31;51.99;47.08;67.75;;
68599;Laerm;18038;50.166;18.908;2023-05-10T07:58:38;53.27;47.88;69.75;;
68599;Laerm;18038;50.166;18.908;2023-05-10T08:01:45;52.19;47.29;69.70;;
68599;Laerm;18038;50.166;18.908;2023-05-10T08:04:51;52.17;47.36;63.71;;
68599;Laerm;18038;50.166;18.908;2023-05-10T08:07:59;54.41;47.62;75.58;;
68599;Laerm;18038;50.166;18.908;2023-05-10T08:11:14;54.33;47.51;70.88;;
68599;Laerm;18038;50.166;18.908;2023-05-10T08:14:24;55.76;47.48;74.50;;
68599;Laerm;18038;50.166;18.908;2023-05-10T08:17:30;53.02;47.31;68.15;;
68599;Laerm;18038;50.166;18.908;2023-05-10T08:20:37;52.83;47.29;68.13;;
68599;Laerm;18038;50.166;18.908;2023-05-10T08:23:44;54.39;47.46;75.15;;
68599;Laerm;18038;50.166;18.908;2023-05-10T08:27:00;52.08;47.21;62.49;;
68599;Laerm;18038;50.166;18.908;2023-05-10T08:30:09;52.27;47.50;62.51;;
68599;Laerm;18038;50.166;18.908;2023-05-10T08:33:18;52.93;47.45;67.17;;
68599;Laerm;18038;50.166;18.908;2023-05-10T08:36:24;57.54;48.61;74.39;;
68599;Laerm;18038;50.166;18.908;2023-05-10T08:39:34;54.77;47.80;75.92;;
68599;Laerm;18038;50.166;18.908;2023-05-10T08:42:53;55.64;47.75;78.70;;
68599;Laerm;18038;50.166;18.908;2023-05-10T08:46:16;55.32;47.42;77.96;;
68599;Laerm;18038;50.166;18.908;2023-05-10T08:49:31;53.35;47.25;74.35;;
68599;Laerm;18038;50.166;18.908;2023-05-10T08:52:40;52.05;47.34;66.40;;
68599;Laerm;18038;50.166;18.908;2023-05-10T08:55:47;55.86;47.47;72.90;;
68599;Laerm;18038;50.166;18.908;2023-05-10T08:58:59;52.79;47.28;68.66;;
68599;Laerm;18038;50.166;18.908;2023-05-10T09:02:07;52.33;47.25;70.53;;
68599;Laerm;18038;50.166;18.908;2023-05-10T09:05:19;53.77;47.64;68.74;;
68599;Laerm;18038;50.166;18.908;2023-05-10T09:08:26;53.62;46.96;70.17;;
68599;Laerm;18038;50.166;18.908;2023-05-10T09:11:34;52.44;47.34;72.75;;
68599;Laerm;18038;50.166;18.908;2023-05-10T09:14:45;53.87;47.12;75.35;;
68599;Laerm;18038;50.166;18.908;2023-05-10T09:17:54;55.30;47.74;71.38;;
68599;Laerm;18038;50.166;18.908;2023-05-10T09:21:20;54.08;47.48;70.91;;
68599;Laerm;18038;50.166;18.908;2023-05-10T09:24:26;52.35;47.01;65.25;;
68599;Laerm;18038;50.166;18.908;2023-05-10T09:27:33;55.11;47.54;71.99;;
68599;Laerm;18038;50.166;18.908;2023-05-10T09:30:42;52.71;47.05;72.12;;
68599;Laerm;18038;50.166;18.908;2023-05-10T09:33:49;51.95;47.26;67.04;;
68599;Laerm;18038;50.166;18.908;2023-05-10T09:37:00;51.85;47.21;62.69;;
68599;Laerm;18038;50.166;18.908;2023-05-10T09:40:16;53.28;46.91;75.88;;
68599;Laerm;18038;50.166;18.908;2023-05-10T09:43:23;53.77;47.32;72.26;;
68599;Laerm;18038;50.166;18.908;2023-05-10T09:46:35;52.99;47.36;73.08;;
68599;Laerm;18038;50.166;18.908;2023-05-10T09:49:42;51.88;47.27;65.38;;
68599;Laerm;18038;50.166;18.908;2023-05-10T09:52:51;53.58;46.90;70.34;;
68599;Laerm;18038;50.166;18.908;2023-05-10T09:55:58;52.41;47.27;63.15;;
68599;Laerm;18038;50.166;18.908;2023-05-10T09:59:10;52.07;46.95;67.44;;
68599;Laerm;18038;50.166;18.908;2023-05-10T10:02:20;53.63;47.27;72.34;;
68599;Laerm;18038;50.166;18.908;2023-05-10T10:05:29;54.35;48.03;74.30;;
68599;Laerm;18038;50.166;18.908;2023-05-10T10:08:37;51.51;47.07;60.72;;
68599;Laerm;18038;50.166;18.908;2023-05-10T10:11:43;52.27;47.18;65.50;;
68599;Laerm;18038;50.166;18.908;2023-05-10T10:14:56;52.57;47.12;71.22;;
68599;Laerm;18038;50.166;18.908;2023-05-10T10:18:15;54.38;46.51;74.15;;
68599;Laerm;18038;50.166;18.908;2023-05-10T10:21:23;51.11;47.37;58.60;;
68599;Laerm;18038;50.166;18.908;2023-05-10T10:24:29;51.27;47.12;59.71;;
68599;Laerm;18038;50.166;18.908;2023-05-10T10:27:56;51.76;47.20;59.27;;
68599;Laerm;18038;50.166;18.908;2023-05-10T10:31:24;56.01;47.46;79.31;;
68599;Laerm;18038;50.166;18.908;2023-05-10T10:34:36;52.58;47.20;71.68;;
68599;Laerm;18038;50.166;18.908;2023-05-10T10:37:45;52.38;47.08;65.39;;
68599;Laerm;18038;50.166;18.908;2023-05-10T10:41:07;52.45;47.23;66.24;;
68599;Laerm;18038;50.166;18.908;2023-05-10T10:44:37;55.68;47.04;74.80;;
68599;Laerm;18038;50.166;18.908;2023-05-10T10:47:45;50.70;46.81;60.04;;
68599;Laerm;18038;50.166;18.908;2023-05-10T10:50:59;50.96;46.98;58.44;;
68599;Laerm;18038;50.166;18.908;2023-05-10T10:54:10;54.07;47.26;72.29;;
68599;Laerm;18038;50.166;18.908;2023-05-10T10:57:20;54.35;47.15;73.62;;
68599;Laerm;18038;50.166;18.908;2023-05-10T11:00:36;52.74;46.94;68.91;;
68599;Laerm;18038;50.166;18.908;2023-05-10T11:04:18;54.11;46.84;75.22;;
68599;Laerm;18038;50.166;18.908;2023-05-10T11:07:29;53.91;46.74;70.39;;
68599;Laerm;18038;50.166;18.908;2023-05-10T11:10:35;53.73;47.02;68.77;;
68599;Laerm;18038;50.166;18.908;2023-05-10T11:13:44;53.29;47.10;75.17;;
68599;Laerm;18038;50.166;18.908;2023-05-10T11:16:56;53.36;46.94;70.07;;
68599;Laerm;18038;50.166;18.908;2023-05-10T11:20:15;53.28;47.21;66.05;;
68599;Laerm;18038;50.166;18.908;2023-05-10T11:23:49;52.66;46.87;66.67;;
68599;Laerm;18038;50.166;18.908;2023-05-10T11:26:59;53.33;46.68;68.67;;
68599;Laerm;18038;50.166;18.908;2023-05-10T11:30:14;52.82;47.01;69.28;;
68599;Laerm;18038;50.166;18.908;2023-05-10T11:33:21;51.92;47.14;61.47;;
68599;Laerm;18038;50.166;18.908;2023-05-10T11:36:32;52.46;47.28;62.61;;
68599;Laerm;18038;50.166;18.908;2023-05-10T11:39:46;50.96;46.83;58.84;;
68599;Laerm;18038;50.166;18.908;2023-05-10T11:42:56;52.19;47.21;68.86;;
68599;Laerm;18038;50.166;18.908;2023-05-10T11:46:12;52.75;47.44;70.74;;
68599;Laerm;18038;50.166;18.908;2023-05-10T11:49:18;52.21;47.05;65.07;;
68599;Laerm;18038;50.166;18.908;2023-05-10T11:52:27;51.68;47.39;58.03;;
68599;Laerm;18038;50.166;18.908;2023-05-10T11:55:36;53.63;47.70;64.80;;
68599;Laerm;18038;50.166;18.908;2023-05-10T11:58:43;53.08;48.00;74.02;;
68599;Laerm;18038;50.166;18.908;2023-05-10T12:01:57;52.72;47.17;70.13;;
68599;Laerm;18038;50.166;18.908;2023-05-10T12:05:11;53.56;47.73;67.94;;
68599;Laerm;18038;50.166;18.908;2023-05-10T12:08:23;53.61;47.92;64.52;;
68599;Laerm;18038;50.166;18.908;2023-05-10T12:11:38;55.74;47.99;76.56;;
68599;Laerm;18038;50.166;18.908;2023-05-10T12:14:50;53.29;47.38;62.98;;
68599;Laerm;18038;50.166;18.908;2023-05-10T12:17:59;52.30;46.83;61.51;;
68599;Laerm;18038;50.166;18.908;2023-05-10T12:21:06;53.25;47.80;67.91;;
68599;Laerm;18038;50.166;18.908;2023-05-10T12:24:13;54.35;47.69;68.91;;
68599;Laerm;18038;50.166;18.908;2023-05-10T12:27:23;52.68;47.34;67.18;;
68599;Laerm;18038;50.166;18.908;2023-05-10T12:30:33;52.73;48.22;61.66;;
68599;Laerm;18038;50.166;18.908;2023-05-10T12:33:41;53.33;47.06;66.00;;
68599;Laerm;18038;50.166;18.908;2023-05-10T12:36:50;53.45;47.68;64.40;;
68599;Laerm;18038;50.166;18.908;2023-05-10T12:39:57;52.82;47.94;64.10;;
68599;Laerm;18038;50.166;18.908;2023-05-10T12:43:24;54.53;47.52;72.17;;
68599;Laerm;18038;50.166;18.908;2023-05-10T12:46:30;55.43;48.01;72.20;;
68599;Laerm;18038;50.166;18.908;2023-05-10T12:49:36;54.50;48.28;66.63;;
68599;Laerm;18038;50.166;18.908;2023-05-10T12:52:46;52.28;46.81;63.19;;
68599;Laerm;18038;50.166;18.908;2023-05-10T12:55:53;53.13;47.62;63.98;;
68599;Laerm;18038;50.166;18.908;2023-05-10T12:59:02;52.76;47.05;71.58;;
68599;Laerm;18038;50.166;18.908;2023-05-10T13:02:09;53.42;47.46;65.41;;
68599;Laerm;18038;50.166;18.908;2023-05-10T13:05:16;52.86;47.34;68.45;;
68599;Laerm;18038;50.166;18.908;2023-05-10T13:08:26;52.28;47.52;59.49;;
68599;Laerm;18038;50.166;18.908;2023-05-10T13:11:37;52.78;47.23;64.50;;
68599;Laerm;18038;50.166;18.908;2023-05-10T13:14:47;52.35;47.75;63.03;;
68599;Laerm;18038;50.166;18.908;2023-05-10T13:17:54;52.63;47.22;65.00;;
68599;Laerm;18038;50.166;18.908;2023-05-10T13:21:03;52.31;47.55;67.76;;
68599;Laerm;18038;50.166;18.908;2023-05-10T13:24:11;53.07;47.44;64.20;;
68599;Laerm;18038;50.166;18.908;2023-05-10T13:27:19;55.00;47.33;71.09;;
68599;Laerm;18038;50.166;18.908;2023-05-10T13:30:28;53.53;47.31;71.47;;
68599;Laerm;18038;50.166;18.908;2023-05-10T13:33:35;57.08;47.52;73.61;;
68599;Laerm;18038;50.166;18.908;2023-05-10T13:36:42;54.75;47.56;70.71;;
68599;Laerm;18038;50.166;18.908;2023-05-10T13:39:49;52.12;47.38;71.25;;
68599;Laerm;18038;50.166;18.908;2023-05-10T13:42:57;51.11;47.61;57.46;;
68599;Laerm;18038;50.166;18.908;2023-05-10T13:46:20;50.68;47.24;60.81;;
68599;Laerm;18038;50.166;18.908;2023-05-10T13:49:31;51.98;47.51;68.49;;
68599;Laerm;18038;50.166;18.908;2023-05-10T13:52:38;52.17;47.75;62.13;;
68599;Laerm;18038;50.166;18.908;2023-05-10T13:55:45;51.04;47.42;60.43;;
68599;Laerm;18038;50.166;18.908;2023-05-10T13:58:52;51.98;47.62;66.22;;
68599;Laerm;18038;50.166;18.908;2023-05-10T14:02:01;52.78;47.07;75.66;;
68599;Laerm;18038;50.166;18.908;2023-05-10T14:05:10;52.57;47.36;68.69;;
68599;Laerm;18038;50.166;18.908;2023-05-10T14:08:20;55.81;47.47;75.13;;
68599;Laerm;18038;50.166;18.908;2023-05-10T14:11:27;53.15;48.25;63.76;;
68599;Laerm;18038;50.166;18.908;2023-05-10T14:14:34;55.13;47.22;73.95;;
68599;Laerm;18038;50.166;18.908;2023-05-10T14:17:50;55.66;47.13;72.53;;
68599;Laerm;18038;50.166;18.908;2023-05-10T14:20:58;53.49;46.97;69.95;;
68599;Laerm;18038;50.166;18.908;2023-05-10T14:24:06;60.12;47.26;84.63;;
68599;Laerm;18038;50.166;18.908;2023-05-10T14:27:12;52.53;47.00;64.69;;
68599;Laerm;18038;50.166;18.908;2023-05-10T14:30:24;52.56;46.86;68.65;;
68599;Laerm;18038;50.166;18.908;2023-05-10T14:33:36;52.92;46.69;66.74;;
68599;Laerm;18038;50.166;18.908;2023-05-10T14:36:45;53.88;46.86;67.63;;
68599;Laerm;18038;50.166;18.908;2023-05-10T14:39:51;53.36;47.25;67.55;;
68599;Laerm;18038;50.166;18.908;2023-05-10T14:42:59;51.97;46.81;69.38;;
68599;Laerm;18038;50.166;18.908;2023-05-10T14:46:05;53.31;47.21;65.43;;
68599;Laerm;18038;50.166;18.908;2023-05-10T14:49:15;52.16;46.93;68.53;;
68599;Laerm;18038;50.166;18.908;2023-05-10T14:52:22;54.86;47.21;71.29;;
68599;Laerm;18038;50.166;18.908;2023-05-10T14:55:30;54.05;47.27;69.32;;
68599;Laerm;18038;50.166;18.908;2023-05-10T14:58:38;53.23;47.16;69.40;;
68599;Laerm;18038;50.166;18.908;2023-05-10T15:01:45;52.45;46.75;64.13;;
68599;Laerm;18038;50.166;18.908;2023-05-10T15:04:56;53.41;46.61;68.59;;
68599;Laerm;18038;50.166;18.908;2023-05-10T15:08:03;54.40;47.35;71.10;;
68599;Laerm;18038;50.166;18.908;2023-05-10T15:11:12;52.13;46.75;61.00;;
68599;Laerm;18038;50.166;18.908;2023-05-10T15:14:19;53.99;47.61;65.25;;
68599;Laerm;18038;50.166;18.908;2023-05-10T15:17:25;52.21;46.32;65.76;;
68599;Laerm;18038;50.166;18.908;2023-05-10T15:20:35;53.86;47.65;71.32;;
68599;Laerm;18038;50.166;18.908;2023-05-10T15:23:41;53.60;47.48;68.26;;
68599;Laerm;18038;50.166;18.908;2023-05-10T15:26:51;52.67;47.05;71.36;;
68599;Laerm;18038;50.166;18.908;2023-05-10T15:29:57;52.77;47.01;69.22;;
68599;Laerm;18038;50.166;18.908;2023-05-10T15:33:10;53.03;46.96;67.17;;
68599;Laerm;18038;50.166;18.908;2023-05-10T15:36:20;51.82;46.96;63.48;;
68599;Laerm;18038;50.166;18.908;2023-05-10T15:39:27;52.27;46.97;69.67;;
68599;Laerm;18038;50.166;18.908;2023-05-10T15:42:33;53.01;46.87;62.28;;
68599;Laerm;18038;50.166;18.908;2023-05-10T15:45:44;53.84;47.70;63.84;;
68599;Laerm;18038;50.166;18.908;2023-05-10T15:48:52;52.57;46.38;61.44;;
68599;Laerm;18038;50.166;18.908;2023-05-10T15:52:03;52.60;46.46;70.11;;
68599;Laerm;18038;50.166;18.908;2023-05-10T15:55:12;51.56;46.65;60.00;;
68599;Laerm;18038;50.166;18.908;2023-05-10T15:58:20;51.38;46.57;67.37;;
68599;Laerm;18038;50.166;18.908;2023-05-10T16:01:27;52.15;46.82;67.16;;
68599;Laerm;18038;50.166;18.908;2023-05-10T16:04:36;55.10;46.83;76.27;;
68599;Laerm;18038;50.166;18.908;2023-05-10T16:07:45;57.57;46.85;76.19;;
68599;Laerm;18038;50.166;18.908;2023-05-10T16:10:54;55.93;46.86;75.28;;
68599;Laerm;18038;50.166;18.908;2023-05-10T16:14:00;54.49;46.93;73.25;;
68599;Laerm;18038;50.166;18.908;2023-05-10T16:17:11;54.20;47.28;67.51;;
68599;Laerm;18038;50.166;18.908;2023-05-10T16:20:17;51.25;47.01;62.67;;
68599;Laerm;18038;50.166;18.908;2023-05-10T16:23:29;53.16;47.06;77.75;;
68599;Laerm;18038;50.166;18.908;2023-05-10T16:26:36;52.98;46.61;72.64;;
68599;Laerm;18038;50.166;18.908;2023-05-10T16:29:50;51.86;46.82;65.06;;
68599;Laerm;18038;50.166;18.908;2023-05-10T16:32:56;51.10;46.46;64.13;;
68599;Laerm;18038;50.166;18.908;2023-05-10T16:36:06;50.55;46.37;61.15;;
68599;Laerm;18038;50.166;18.908;2023-05-10T16:39:15;51.95;46.50;65.49;;
68599;Laerm;18038;50.166;18.908;2023-05-10T16:42:25;51.30;46.57;61.57;;
68599;Laerm;18038;50.166;18.908;2023-05-10T16:45:39;51.52;47.18;67.39;;
68599;Laerm;18038;50.166;18.908;2023-05-10T16:48:56;56.87;46.40;80.41;;
68599;Laerm;18038;50.166;18.908;2023-05-10T16:52:03;53.27;46.63;74.28;;
68599;Laerm;18038;50.166;18.908;2023-05-10T16:55:14;52.33;47.03;72.53;;
68599;Laerm;18038;50.166;18.908;2023-05-10T16:58:21;52.00;46.51;64.70;;
68599;Laerm;18038;50.166;18.908;2023-05-10T17:01:32;50.84;46.70;61.45;;
68599;Laerm;18038;50.166;18.908;2023-05-10T17:04:39;51.50;46.61;66.96;;
68599;Laerm;18038;50.166;18.908;2023-05-10T17:07:46;52.73;46.57;69.65;;
68599;Laerm;18038;50.166;18.908;2023-05-10T17:10:57;53.09;46.65;70.55;;
68599;Laerm;18038;50.166;18.908;2023-05-10T17:14:07;50.66;46.65;71.37;;
68599;Laerm;18038;50.166;18.908;2023-05-10T17:17:13;51.12;46.40;65.98;;
68599;Laerm;18038;50.166;18.908;2023-05-10T17:20:21;52.45;47.15;61.79;;
68599;Laerm;18038;50.166;18.908;2023-05-10T17:23:28;50.93;46.68;63.01;;
68599;Laerm;18038;50.166;18.908;2023-05-10T17:26:38;51.00;46.75;61.36;;
68599;Laerm;18038;50.166;18.908;2023-05-10T17:29:45;51.59;46.96;60.23;;